Time;durP1;ratioP1;P1;durP2;ratioP2;P2;SDS_P1;SDS_P2;PMS_P1;PMS_P2;Temp;Humidity;BMP_temperature;BMP_pressure;BME280_temperature;BME280_humidity;BME280_pressure;Samples;Min_cycle;Max_cycle;Signal;HPM_P1;HPM_P2
2023/11/12 00:02:09;;;;;;;1.02;0.50;;;5.90;99.90;;;;;;5092765;28;20593;-53
2023/11/12 00:04:36;;;;;;;1.00;0.40;;;5.90;99.90;;;;;;5092037;28;20487;-57
2023/11/12 00:07:03;;;;;;;0.70;0.40;;;5.90;99.90;;;;;;5092534;28;20760;-56
2023/11/12 00:09:30;;;;;;;0.93;0.60;;;5.90;99.90;;;;;;5092173;28;20449;-56
2023/11/12 00:11:58;;;;;;;0.80;0.40;;;5.90;99.90;;;;;;5091966;28;20775;-54
2023/11/12 00:14:25;;;;;;;1.00;0.40;;;5.90;99.90;;;;;;5092153;28;20432;-54
2023/11/12 00:16:53;;;;;;;1.63;0.50;;;6.00;99.90;;;;;;5092435;28;20479;-54
2023/11/12 00:19:20;;;;;;;0.60;0.40;;;6.00;99.90;;;;;;5092200;28;20508;-53
2023/11/12 00:21:48;;;;;;;0.77;0.40;;;6.00;99.90;;;;;;5091237;28;20499;-53
2023/11/12 00:24:17;;;;;;;0.90;0.40;;;5.90;99.90;;;;;;5092123;28;20441;-55
2023/11/12 00:26:44;;;;;;;0.70;0.40;;;5.90;99.90;;;;;;5092640;28;20739;-54
2023/11/12 00:29:11;;;;;;;0.60;0.37;;;5.90;99.90;;;;;;5091783;28;20422;-52
2023/11/12 00:31:38;;;;;;;1.05;0.50;;;5.80;99.90;;;;;;5091320;28;20437;-55
2023/11/12 00:34:07;;;;;;;0.70;0.40;;;5.90;99.90;;;;;;5091248;28;20426;-55
2023/11/12 00:36:34;;;;;;;0.80;0.40;;;5.90;99.90;;;;;;5091322;28;20642;-55
2023/11/12 00:39:01;;;;;;;0.80;0.40;;;5.90;99.90;;;;;;5092077;28;20456;-56
2023/11/12 00:41:28;;;;;;;0.70;0.40;;;5.90;99.90;;;;;;5094176;28;20426;-55
2023/11/12 00:43:56;;;;;;;1.35;0.40;;;5.90;99.90;;;;;;5091506;28;20422;-51
2023/11/12 00:46:24;;;;;;;0.60;0.40;;;5.90;99.90;;;;;;5091739;28;20429;-55
2023/11/12 00:48:51;;;;;;;1.00;0.40;;;6.00;99.90;;;;;;5092110;28;20430;-56
2023/11/12 00:51:20;;;;;;;0.60;0.30;;;6.00;99.90;;;;;;5091994;28;20440;-56
2023/11/12 00:53:47;;;;;;;0.70;0.40;;;6.00;99.90;;;;;;5090543;28;20414;-54
2023/11/12 00:56:15;;;;;;;0.60;0.40;;;6.00;99.90;;;;;;5091922;28;20422;-52
2023/11/12 00:58:42;;;;;;;0.70;0.40;;;6.00;99.90;;;;;;5091147;28;20456;-53
2023/11/12 01:01:09;;;;;;;0.70;0.30;;;6.00;99.90;;;;;;5091597;28;20433;-52
2023/11/12 01:03:36;;;;;;;0.70;0.40;;;6.00;99.90;;;;;;5092292;28;20428;-55
2023/11/12 01:06:04;;;;;;;0.70;0.40;;;6.10;99.90;;;;;;5093085;28;20849;-51
2023/11/12 01:08:32;;;;;;;0.60;0.30;;;6.10;99.90;;;;;;5093478;28;20414;-52
2023/11/12 01:10:59;;;;;;;0.60;0.30;;;6.10;99.90;;;;;;5091023;28;20413;-55
2023/11/12 01:13:27;;;;;;;1.10;0.40;;;6.10;99.90;;;;;;5091898;28;20434;-50
2023/11/12 01:15:55;;;;;;;0.70;0.40;;;6.10;99.90;;;;;;5091702;28;20428;-57
2023/11/12 01:18:23;;;;;;;1.20;0.30;;;6.00;99.90;;;;;;5093037;28;20503;-52
2023/11/12 01:20:50;;;;;;;0.77;0.37;;;6.10;99.90;;;;;;5092026;28;20410;-53
2023/11/12 01:23:18;;;;;;;0.60;0.30;;;6.10;99.90;;;;;;5093146;28;20714;-55
2023/11/12 01:25:47;;;;;;;0.90;0.30;;;6.10;99.90;;;;;;5091296;28;20506;-56
2023/11/12 01:28:14;;;;;;;0.60;0.30;;;6.10;99.90;;;;;;5091427;28;20467;-54
2023/11/12 01:30:42;;;;;;;0.50;0.30;;;6.30;99.90;;;;;;5090141;28;20424;-54
2023/11/12 01:33:10;;;;;;;0.63;0.30;;;6.30;99.90;;;;;;5091019;28;20414;-54
2023/11/12 01:35:37;;;;;;;0.68;0.30;;;6.30;99.90;;;;;;5087822;28;20457;-54
2023/11/12 01:38:04;;;;;;;0.50;0.30;;;6.30;99.90;;;;;;5090293;28;20453;-56
2023/11/12 01:40:37;;;;;;;0.60;0.30;;;6.30;99.90;;;;;;5090284;28;20530;-57
2023/11/12 01:43:07;;;;;;;0.50;0.30;;;6.30;99.90;;;;;;5094728;28;20478;-54
2023/11/12 01:45:34;;;;;;;0.90;0.30;;;6.30;99.90;;;;;;5094891;28;20418;-54
2023/11/12 01:48:01;;;;;;;0.90;0.30;;;6.30;99.90;;;;;;5096168;28;20410;-54
2023/11/12 01:50:29;;;;;;;0.60;0.30;;;6.40;99.90;;;;;;5096876;28;20593;-53
2023/11/12 01:52:57;;;;;;;0.50;0.30;;;6.30;99.90;;;;;;5096895;28;20489;-54
2023/11/12 01:55:26;;;;;;;0.50;0.30;;;6.30;99.90;;;;;;5093733;28;20763;-53
2023/11/12 01:57:54;;;;;;;0.70;0.30;;;6.40;99.90;;;;;;5095255;28;20438;-54
2023/11/12 02:00:23;;;;;;;0.85;0.40;;;6.50;99.90;;;;;;5094474;28;20418;-52
2023/11/12 02:02:51;;;;;;;1.00;0.30;;;6.40;99.90;;;;;;5095387;28;20725;-54
2023/11/12 02:05:20;;;;;;;0.68;0.30;;;6.40;99.90;;;;;;5095954;28;20426;-53
2023/11/12 02:07:48;;;;;;;0.65;0.30;;;6.40;99.90;;;;;;5096379;28;20433;-54
2023/11/12 02:10:16;;;;;;;0.70;0.40;;;6.40;99.90;;;;;;5096500;28;20837;-56
2023/11/12 02:12:45;;;;;;;0.90;0.30;;;6.40;99.90;;;;;;5096417;28;20483;-56
2023/11/12 02:15:14;;;;;;;0.93;0.30;;;6.30;99.90;;;;;;5096330;28;20814;-55
2023/11/12 02:17:44;;;;;;;0.50;0.30;;;6.30;99.90;;;;;;5094646;28;20414;-55
2023/11/12 02:20:14;;;;;;;0.70;0.30;;;6.30;99.90;;;;;;5095650;28;20421;-52
2023/11/12 02:22:41;;;;;;;0.50;0.30;;;6.30;99.90;;;;;;5096690;28;20499;-55
2023/11/12 02:25:10;;;;;;;1.80;0.40;;;6.30;99.90;;;;;;5095447;28;20480;-52
2023/11/12 02:27:38;;;;;;;2.40;0.40;;;6.40;99.90;;;;;;5094894;28;20829;-54
2023/11/12 02:30:08;;;;;;;1.00;0.40;;;6.40;99.90;;;;;;5094149;28;20418;-56
2023/11/12 02:32:35;;;;;;;0.50;0.30;;;6.40;99.90;;;;;;5094337;28;20501;-56
2023/11/12 02:35:03;;;;;;;1.63;0.40;;;6.40;99.90;;;;;;5094186;28;20426;-55
2023/11/12 02:37:30;;;;;;;0.90;0.30;;;6.40;99.90;;;;;;5094992;28;20498;-54
2023/11/12 02:39:57;;;;;;;2.50;0.40;;;6.40;99.90;;;;;;5094137;28;20430;-55
2023/11/12 02:42:29;;;;;;;0.80;0.30;;;6.40;99.90;;;;;;5095034;28;20826;-56
2023/11/12 02:44:56;;;;;;;0.60;0.30;;;6.40;99.90;;;;;;5094868;28;20418;-54
2023/11/12 02:47:23;;;;;;;1.00;0.30;;;6.50;99.90;;;;;;5095672;28;20418;-57
2023/11/12 02:50:05;;;;;;;0.60;0.20;;;6.40;99.90;;;;;;5095612;28;20420;-51
2023/11/12 02:52:33;;;;;;;0.70;0.30;;;6.40;99.90;;;;;;5095329;28;20711;-53
2023/11/12 02:55:00;;;;;;;0.40;0.20;;;6.20;99.90;;;;;;5093588;28;20511;-55
2023/11/12 02:57:29;;;;;;;0.50;0.20;;;6.10;99.90;;;;;;5094526;28;20421;-57
2023/11/12 02:59:56;;;;;;;2.10;0.30;;;6.10;99.90;;;;;;5092578;28;20869;-54
2023/11/12 03:02:23;;;;;;;0.50;0.30;;;6.10;99.90;;;;;;5092955;28;20424;-55
2023/11/12 03:04:52;;;;;;;0.40;0.20;;;6.10;99.90;;;;;;5092762;28;20426;-56
2023/11/12 03:07:19;;;;;;;0.70;0.20;;;6.20;99.90;;;;;;5093029;28;20422;-56
2023/11/12 03:09:46;;;;;;;0.60;0.20;;;6.40;99.90;;;;;;5092689;28;20490;-54
2023/11/12 03:12:13;;;;;;;0.40;0.20;;;6.40;99.90;;;;;;5093978;28;20425;-54
2023/11/12 03:14:43;;;;;;;0.40;0.20;;;6.40;99.90;;;;;;5095747;28;20729;-55
2023/11/12 03:17:10;;;;;;;0.60;0.20;;;6.30;99.90;;;;;;5095508;28;20437;-54
2023/11/12 03:19:37;;;;;;;0.50;0.30;;;6.30;99.90;;;;;;5093988;28;20570;-52
2023/11/12 03:22:04;;;;;;;0.93;0.20;;;6.30;99.90;;;;;;5092590;28;20430;-54
2023/11/12 03:24:31;;;;;;;0.40;0.20;;;6.10;99.90;;;;;;5093417;28;20852;-52
2023/11/12 03:26:58;;;;;;;0.73;0.30;;;6.00;99.90;;;;;;5090418;28;20413;-55
2023/11/12 03:29:26;;;;;;;0.50;0.30;;;6.10;99.90;;;;;;5093718;28;20461;-55
2023/11/12 03:31:55;;;;;;;0.40;0.20;;;6.10;99.90;;;;;;5093135;28;20414;-56
2023/11/12 03:34:24;;;;;;;0.50;0.20;;;6.10;99.90;;;;;;5093660;28;20429;-51
2023/11/12 03:36:50;;;;;;;0.50;0.20;;;6.00;99.90;;;;;;5093178;28;20425;-56
2023/11/12 03:39:18;;;;;;;0.50;0.20;;;5.90;99.90;;;;;;5093925;28;20430;-52
2023/11/12 03:41:45;;;;;;;1.10;0.20;;;5.80;99.90;;;;;;5094003;28;20694;-54
2023/11/12 03:44:12;;;;;;;0.40;0.20;;;5.80;99.90;;;;;;5092970;28;20490;-52
2023/11/12 03:46:39;;;;;;;0.60;0.30;;;5.70;99.90;;;;;;5093683;28;20425;-52
2023/11/12 03:49:08;;;;;;;0.50;0.30;;;5.70;99.90;;;;;;5094041;28;20464;-52
2023/11/12 03:51:35;;;;;;;0.50;0.30;;;5.70;99.90;;;;;;5093235;28;20481;-50
2023/11/12 03:54:02;;;;;;;0.50;0.20;;;5.70;99.90;;;;;;5095112;28;20414;-57
2023/11/12 03:56:30;;;;;;;0.80;0.20;;;5.50;99.90;;;;;;5095029;28;20922;-52
2023/11/12 03:58:57;;;;;;;0.50;0.30;;;5.50;1.00;;;;;;5093668;28;20430;-52
2023/11/12 04:01:24;;;;;;;0.90;0.30;;;5.50;1.00;;;;;;5093891;28;20418;-54
2023/11/12 04:03:52;;;;;;;0.55;0.30;;;5.50;1.00;;;;;;5094063;28;20421;-54
2023/11/12 04:06:20;;;;;;;0.40;0.22;;;5.50;1.00;;;;;;5092808;28;20438;-53
2023/11/12 04:08:47;;;;;;;0.50;0.30;;;5.60;1.00;;;;;;5093865;28;20469;-54
2023/11/12 04:11:14;;;;;;;0.40;0.20;;;5.70;1.00;;;;;;5092728;28;20433;-54
2023/11/12 04:13:41;;;;;;;0.50;0.20;;;5.80;1.00;;;;;;5093692;28;20581;-55
2023/11/12 04:16:08;;;;;;;0.80;0.20;;;5.90;99.90;;;;;;5092512;28;20418;-49
2023/11/12 04:18:36;;;;;;;0.40;0.20;;;5.90;99.90;;;;;;5092850;28;20430;-53
2023/11/12 04:21:05;;;;;;;0.40;0.20;;;5.90;99.90;;;;;;5092625;28;20465;-53
2023/11/12 04:23:34;;;;;;;0.50;0.30;;;5.90;99.90;;;;;;5091421;28;20421;-54
2023/11/12 04:26:01;;;;;;;0.50;0.20;;;5.90;99.90;;;;;;5091533;28;20410;-56
2023/11/12 04:28:29;;;;;;;1.80;0.20;;;5.90;99.90;;;;;;5090665;28;20433;-58
2023/11/12 04:30:57;;;;;;;0.60;0.30;;;5.80;99.90;;;;;;5091062;28;20829;-53
2023/11/12 04:33:24;;;;;;;0.70;0.30;;;5.70;99.90;;;;;;5090730;28;20445;-56
2023/11/12 04:35:52;;;;;;;0.80;0.20;;;5.60;99.90;;;;;;5093901;28;20731;-56
2023/11/12 04:38:20;;;;;;;0.50;0.20;;;5.70;99.90;;;;;;5093448;28;20421;-56
2023/11/12 04:40:48;;;;;;;0.52;0.20;;;5.70;99.90;;;;;;5092284;28;20428;-54
2023/11/12 04:43:16;;;;;;;0.40;0.20;;;5.70;99.90;;;;;;5093944;28;20517;-55
2023/11/12 04:45:43;;;;;;;0.45;0.20;;;5.80;99.90;;;;;;5092045;28;20495;-53
2023/11/12 04:48:11;;;;;;;1.10;0.22;;;5.80;99.90;;;;;;5093024;28;20425;-53
2023/11/12 04:50:38;;;;;;;0.70;0.30;;;5.80;99.90;;;;;;5092008;28;20424;-53
2023/11/12 04:53:06;;;;;;;0.70;0.30;;;5.80;99.90;;;;;;5093268;28;20454;-53
2023/11/12 04:55:33;;;;;;;0.40;0.20;;;5.80;99.90;;;;;;5091807;28;20432;-56
2023/11/12 04:58:04;;;;;;;0.50;0.20;;;5.80;99.90;;;;;;5093246;28;20426;-55
2023/11/12 05:00:31;;;;;;;1.40;0.30;;;5.80;99.90;;;;;;5092760;28;20705;-57
2023/11/12 05:02:59;;;;;;;0.82;0.30;;;5.80;99.90;;;;;;5092718;28;20704;-55
2023/11/12 05:05:26;;;;;;;0.60;0.22;;;5.80;99.90;;;;;;5092312;28;20430;-52
2023/11/12 05:07:53;;;;;;;0.80;0.30;;;5.80;99.90;;;;;;5094157;28;20709;-50
2023/11/12 05:10:20;;;;;;;0.65;0.30;;;5.80;99.90;;;;;;5093809;28;20417;-51
2023/11/12 05:12:47;;;;;;;0.90;0.30;;;5.80;99.90;;;;;;5091972;28;20433;-55
2023/11/12 05:15:16;;;;;;;0.40;0.20;;;5.90;99.90;;;;;;5090425;28;20421;-56
2023/11/12 05:17:43;;;;;;;0.60;0.30;;;5.90;99.90;;;;;;5093685;28;20696;-55
2023/11/12 05:20:11;;;;;;;0.52;0.30;;;5.90;99.90;;;;;;5094848;28;20442;-52
2023/11/12 05:22:38;;;;;;;0.80;0.30;;;5.80;99.90;;;;;;5095326;28;20935;-54
2023/11/12 05:25:06;;;;;;;0.60;0.30;;;5.70;99.90;;;;;;5095071;28;20417;-55
2023/11/12 05:27:34;;;;;;;0.77;0.30;;;5.60;99.90;;;;;;5096293;28;20510;-54
2023/11/12 05:30:02;;;;;;;0.60;0.30;;;5.70;99.90;;;;;;5097273;28;20422;-56
2023/11/12 05:32:31;;;;;;;0.80;0.70;;;5.70;99.90;;;;;;5096323;28;20432;-54
2023/11/12 05:34:58;;;;;;;0.50;0.30;;;5.70;99.90;;;;;;5095892;28;20422;-56
2023/11/12 05:37:25;;;;;;;0.60;0.30;;;5.60;99.90;;;;;;5095673;28;20425;-52
2023/11/12 05:39:52;;;;;;;0.77;0.40;;;5.60;99.90;;;;;;5095780;28;20718;-51
2023/11/12 05:42:19;;;;;;;0.88;0.30;;;5.60;99.90;;;;;;5096317;28;20433;-55
2023/11/12 05:44:46;;;;;;;0.60;0.40;;;5.50;99.90;;;;;;5093499;28;20416;-56
2023/11/12 05:47:14;;;;;;;0.70;0.40;;;5.40;99.90;;;;;;5096251;28;20757;-54
2023/11/12 05:49:42;;;;;;;0.70;0.40;;;5.40;99.90;;;;;;5095768;28;20413;-55
2023/11/12 05:52:09;;;;;;;0.60;0.40;;;5.40;99.90;;;;;;5096077;28;20417;-55
2023/11/12 05:54:36;;;;;;;0.70;0.40;;;5.30;99.90;;;;;;5097297;28;20516;-52
2023/11/12 05:57:04;;;;;;;0.70;0.30;;;5.20;6.40;;;;;;5096750;28;20733;-52
2023/11/12 05:59:31;;;;;;;0.60;0.30;;;5.10;12.10;;;;;;5096418;28;20437;-56
2023/11/12 06:01:58;;;;;;;0.50;0.30;;;5.00;7.50;;;;;;5096260;28;20428;-49
2023/11/12 06:04:25;;;;;;;0.60;0.40;;;4.90;16.80;;;;;;5095197;28;20440;-55
2023/11/12 06:06:53;;;;;;;0.85;0.50;;;5.10;42.20;;;;;;5095909;28;20429;-51
2023/11/12 06:09:21;;;;;;;0.52;0.30;;;5.10;4.50;;;;;;5093915;28;20410;-52
2023/11/12 06:11:48;;;;;;;1.60;0.30;;;5.00;1.00;;;;;;5094456;28;20409;-51
2023/11/12 06:14:15;;;;;;;0.60;0.30;;;5.00;15.40;;;;;;5093427;28;20457;-51
2023/11/12 06:16:42;;;;;;;0.70;0.30;;;4.90;9.20;;;;;;5094707;28;20422;-49
2023/11/12 06:19:09;;;;;;;0.50;0.30;;;4.90;15.90;;;;;;5093180;28;20853;-54
2023/11/12 06:21:36;;;;;;;0.60;0.30;;;5.00;10.90;;;;;;5094123;28;20422;-53
2023/11/12 06:24:06;;;;;;;0.68;0.40;;;5.10;26.30;;;;;;5095282;28;20450;-52
2023/11/12 06:26:33;;;;;;;0.60;0.30;;;5.20;1.00;;;;;;5095798;28;20447;-54
2023/11/12 06:29:01;;;;;;;0.70;0.30;;;5.20;1.00;;;;;;5095986;28;20848;-56
2023/11/12 06:31:28;;;;;;;0.95;0.40;;;5.10;1.00;;;;;;5096497;28;20420;-55
2023/11/12 06:33:55;;;;;;;0.97;0.30;;;5.10;99.90;;;;;;5096362;28;20849;-50
2023/11/12 06:36:22;;;;;;;0.60;0.30;;;5.20;99.90;;;;;;5096204;28;20422;-54
2023/11/12 06:38:49;;;;;;;0.70;0.30;;;5.20;99.90;;;;;;5095369;28;20821;-55
2023/11/12 06:41:17;;;;;;;0.90;0.30;;;5.10;99.90;;;;;;5093130;28;20421;-55
2023/11/12 06:43:44;;;;;;;0.60;0.40;;;5.00;99.90;;;;;;5093506;28;20418;-56
2023/11/12 06:46:11;;;;;;;0.90;0.30;;;5.00;99.90;;;;;;5094375;28;20414;-56
2023/11/12 06:48:39;;;;;;;0.60;0.30;;;4.80;99.90;;;;;;5093914;28;20864;-54
2023/11/12 06:51:07;;;;;;;0.50;0.30;;;4.80;1.30;;;;;;5092832;28;20479;-50
2023/11/12 06:53:34;;;;;;;1.20;0.40;;;4.80;1.00;;;;;;5093103;28;20710;-53
2023/11/12 06:56:01;;;;;;;0.82;0.30;;;4.70;1.00;;;;;;5094385;28;20431;-50
2023/11/12 06:58:29;;;;;;;0.70;0.40;;;4.60;10.80;;;;;;5095104;28;20426;-51
2023/11/12 07:00:56;;;;;;;0.60;0.30;;;4.50;20.80;;;;;;5094465;28;20536;-54
2023/11/12 07:03:23;;;;;;;1.30;0.40;;;4.50;34.00;;;;;;5094690;28;20418;-55
2023/11/12 07:05:50;;;;;;;1.20;0.40;;;4.50;30.30;;;;;;5092620;28;20732;-54
2023/11/12 07:08:19;;;;;;;1.20;0.40;;;4.40;38.10;;;;;;5094174;28;20433;-54
2023/11/12 07:10:46;;;;;;;0.70;0.40;;;4.50;50.10;;;;;;5094471;28;20429;-56
2023/11/12 07:13:14;;;;;;;0.50;0.32;;;4.50;40.40;;;;;;5095097;28;20421;-55
2023/11/12 07:15:43;;;;;;;0.75;0.40;;;4.50;41.30;;;;;;5093634;28;20733;-55
2023/11/12 07:18:11;;;;;;;0.82;0.40;;;4.50;45.60;;;;;;5094936;28;20421;-52
2023/11/12 07:20:39;;;;;;;0.60;0.40;;;4.70;60.80;;;;;;5095206;28;20469;-55
2023/11/12 07:23:06;;;;;;;0.80;0.40;;;4.80;17.60;;;;;;5094868;28;20471;-54
2023/11/12 07:25:33;;;;;;;1.10;0.40;;;4.80;13.80;;;;;;5094776;28;20421;-51
2023/11/12 07:28:00;;;;;;;0.80;0.40;;;4.90;3.30;;;;;;5094269;28;20426;-55
2023/11/12 07:30:27;;;;;;;0.80;0.40;;;4.90;8.70;;;;;;5093774;28;20513;-53
2023/11/12 07:32:55;;;;;;;0.65;0.40;;;5.00;1.00;;;;;;5094931;28;20757;-56
2023/11/12 07:35:23;;;;;;;1.00;0.40;;;5.00;1.00;;;;;;5095403;28;20457;-52
2023/11/12 07:37:50;;;;;;;0.60;0.40;;;5.10;99.90;;;;;;5095455;28;20819;-55
2023/11/12 07:40:18;;;;;;;0.70;0.40;;;5.00;1.00;;;;;;5094453;28;20438;-49
2023/11/12 07:42:45;;;;;;;0.60;0.30;;;5.00;1.00;;;;;;5095346;28;20546;-55
2023/11/12 07:45:13;;;;;;;0.77;0.40;;;5.10;1.00;;;;;;5095140;28;20409;-55
2023/11/12 07:47:40;;;;;;;2.00;0.40;;;5.10;99.90;;;;;;5095035;28;20418;-52
2023/11/12 07:50:10;;;;;;;0.60;0.50;;;5.20;99.90;;;;;;5095264;28;20737;-54
2023/11/12 07:52:37;;;;;;;0.90;0.40;;;5.10;99.90;;;;;;5092327;28;20437;-52
2023/11/12 07:55:05;;;;;;;0.68;0.40;;;5.20;99.90;;;;;;5093543;28;20422;-53
2023/11/12 07:57:33;;;;;;;0.60;0.40;;;5.20;99.90;;;;;;5095051;28;20520;-52
2023/11/12 08:00:00;;;;;;;0.80;0.50;;;5.10;99.90;;;;;;5093304;28;20490;-54
2023/11/12 08:02:28;;;;;;;0.70;0.40;;;5.10;99.90;;;;;;5091792;28;20441;-54
2023/11/12 08:04:55;;;;;;;0.80;0.50;;;5.10;99.90;;;;;;5092018;28;20483;-54
2023/11/12 08:07:23;;;;;;;0.80;0.50;;;5.00;99.90;;;;;;5092359;28;20430;-53
2023/11/12 08:09:50;;;;;;;1.20;0.50;;;5.00;1.00;;;;;;5093584;28;20436;-51
2023/11/12 08:12:17;;;;;;;0.70;0.50;;;5.10;99.90;;;;;;5092035;28;20418;-54
2023/11/12 08:14:44;;;;;;;0.90;0.50;;;5.30;1.80;;;;;;5093276;28;20849;-55
2023/11/12 08:17:12;;;;;;;0.60;0.40;;;5.60;99.90;;;;;;5093210;28;20425;-54
2023/11/12 08:19:39;;;;;;;0.90;0.40;;;5.70;99.90;;;;;;5092298;28;20932;-54
2023/11/12 08:22:06;;;;;;;0.70;0.40;;;5.80;99.90;;;;;;5092778;28;20429;-54
2023/11/12 08:24:34;;;;;;;1.30;0.60;;;5.80;99.90;;;;;;5092382;28;20840;-51
2023/11/12 08:27:03;;;;;;;0.60;0.40;;;5.70;99.90;;;;;;5091662;28;20601;-50
2023/11/12 08:29:31;;;;;;;1.13;0.50;;;5.70;99.90;;;;;;5091390;28;20552;-51
2023/11/12 08:31:58;;;;;;;1.27;0.45;;;5.70;99.90;;;;;;5091502;28;20526;-51
2023/11/12 08:34:25;;;;;;;1.00;0.50;;;5.60;99.90;;;;;;5091790;28;20477;-54
2023/11/12 08:36:53;;;;;;;1.10;0.50;;;5.70;99.90;;;;;;5098836;28;20885;-55
2023/11/12 08:39:20;;;;;;;1.13;0.50;;;5.70;99.90;;;;;;5111128;28;20408;-55
2023/11/12 08:41:49;;;;;;;0.60;0.40;;;5.80;99.90;;;;;;5112581;28;20743;-53
2023/11/12 08:44:16;;;;;;;0.60;0.40;;;5.90;99.90;;;;;;5112060;28;20943;-55
2023/11/12 08:46:44;;;;;;;1.30;0.50;;;5.90;99.90;;;;;;5111389;28;20901;-55
2023/11/12 08:49:12;;;;;;;1.00;0.50;;;6.00;99.90;;;;;;5112029;28;20424;-54
2023/11/12 08:51:39;;;;;;;0.80;0.50;;;6.10;99.90;;;;;;5113357;28;20508;-54
2023/11/12 08:54:08;;;;;;;0.90;0.40;;;6.20;99.90;;;;;;5113894;28;20935;-56
2023/11/12 08:56:35;;;;;;;1.20;0.50;;;6.20;99.90;;;;;;5113283;28;20834;-55
2023/11/12 08:59:04;;;;;;;0.80;0.50;;;6.30;99.90;;;;;;5114182;28;20500;-55
2023/11/12 09:01:34;;;;;;;0.90;0.50;;;6.30;99.90;;;;;;5115234;28;20850;-54
2023/11/12 09:04:02;;;;;;;0.82;0.40;;;6.30;99.90;;;;;;5115337;28;20452;-51
2023/11/12 09:06:29;;;;;;;1.00;0.40;;;6.20;99.90;;;;;;5116537;28;20481;-52
2023/11/12 09:08:56;;;;;;;0.68;0.40;;;6.10;99.90;;;;;;5115915;28;20423;-55
2023/11/12 09:11:23;;;;;;;1.20;0.40;;;6.20;99.90;;;;;;5116666;28;20426;-50
2023/11/12 09:13:51;;;;;;;0.90;0.50;;;6.30;99.90;;;;;;5117455;28;20419;-50
2023/11/12 09:16:19;;;;;;;1.30;0.50;;;6.20;99.90;;;;;;5116593;28;20838;-54
2023/11/12 09:18:46;;;;;;;0.80;0.45;;;6.30;99.90;;;;;;5116097;28;20428;-54
2023/11/12 09:21:13;;;;;;;1.23;0.50;;;6.30;99.90;;;;;;5115803;28;20877;-55
2023/11/12 09:23:42;;;;;;;1.30;0.50;;;6.30;99.90;;;;;;5117682;28;20416;-55
2023/11/12 09:26:09;;;;;;;0.90;0.50;;;6.30;99.90;;;;;;5116464;28;20428;-51
2023/11/12 09:28:38;;;;;;;0.70;0.40;;;6.30;99.90;;;;;;5115292;28;20416;-52
2023/11/12 09:31:05;;;;;;;0.90;0.50;;;6.20;99.90;;;;;;5115062;28;20420;-55
2023/11/12 09:33:34;;;;;;;1.60;0.50;;;6.20;99.90;;;;;;5116157;28;20428;-53
2023/11/12 09:36:01;;;;;;;0.80;0.50;;;6.20;99.90;;;;;;5115306;28;20412;-56
2023/11/12 09:38:28;;;;;;;1.05;0.50;;;6.20;99.90;;;;;;5115701;28;20438;-54
2023/11/12 09:40:59;;;;;;;0.70;0.40;;;6.30;99.90;;;;;;5115199;28;20750;-52
2023/11/12 09:43:27;;;;;;;0.73;0.40;;;6.40;99.90;;;;;;5114884;28;20420;-50
2023/11/12 09:45:57;;;;;;;0.90;0.50;;;6.40;99.90;;;;;;5115942;28;20430;-49
2023/11/12 09:48:31;;;;;;;1.00;0.50;;;6.40;99.90;;;;;;5115042;28;20431;-51
2023/11/12 09:51:00;;;;;;;0.70;0.47;;;6.40;99.90;;;;;;5117094;28;20749;-55
2023/11/12 09:53:29;;;;;;;1.83;0.50;;;6.50;99.90;;;;;;5116424;28;20755;-56
2023/11/12 09:55:56;;;;;;;1.60;0.40;;;6.60;99.90;;;;;;5117168;28;20432;-51
2023/11/12 09:58:23;;;;;;;0.80;0.50;;;6.60;99.90;;;;;;5113414;28;20719;-56
2023/11/12 10:00:52;;;;;;;0.80;0.50;;;6.70;99.90;;;;;;5111637;28;20846;-54
2023/11/12 10:03:19;;;;;;;0.98;0.50;;;6.80;99.90;;;;;;5112258;28;20434;-54
2023/11/12 10:05:46;;;;;;;0.80;0.50;;;7.00;99.90;;;;;;5112024;28;20420;-53
2023/11/12 10:08:15;;;;;;;0.80;0.40;;;7.10;99.90;;;;;;5114831;28;20432;-51
2023/11/12 10:10:42;;;;;;;0.90;0.55;;;7.10;99.90;;;;;;5114458;28;20827;-53
2023/11/12 10:13:11;;;;;;;1.33;0.50;;;7.20;99.90;;;;;;5112409;28;20416;-51
2023/11/12 10:15:39;;;;;;;1.48;0.50;;;7.20;99.90;;;;;;5112990;28;20896;-50
2023/11/12 10:18:06;;;;;;;1.38;0.47;;;7.20;99.90;;;;;;5114146;28;20866;-54
2023/11/12 10:20:39;;;;;;;0.80;0.50;;;7.40;99.90;;;;;;5114122;28;20432;-53
2023/11/12 10:23:07;;;;;;;0.80;0.50;;;7.50;99.90;;;;;;5112590;28;20476;-52
2023/11/12 10:25:39;;;;;;;1.60;0.50;;;7.50;99.90;;;;;;5115109;28;20424;-51
2023/11/12 10:28:07;;;;;;;0.88;0.40;;;7.60;99.90;;;;;;5116248;28;20556;-52
2023/11/12 10:30:37;;;;;;;0.90;0.50;;;7.60;99.90;;;;;;5115567;28;20440;-54
2023/11/12 10:33:23;;;;;;;1.20;0.43;;;7.60;99.90;;;;;;5114857;28;20438;-54
2023/11/12 10:35:50;;;;;;;1.90;0.50;;;7.60;99.90;;;;;;5112136;28;20519;-52
2023/11/12 10:38:18;;;;;;;1.30;0.50;;;7.50;99.90;;;;;;5113088;28;20470;-51
2023/11/12 10:41:05;;;;;;;0.80;0.50;;;7.70;99.90;;;;;;5114710;28;20442;-59
2023/11/12 10:43:33;;;;;;;0.93;0.50;;;7.70;99.90;;;;;;5114769;28;20904;-53
2023/11/12 10:46:03;;;;;;;0.95;0.50;;;7.70;99.90;;;;;;5110726;27;20432;-54
2023/11/12 10:48:35;;;;;;;0.70;0.40;;;7.80;99.90;;;;;;5108358;28;20452;-56
2023/11/12 10:51:05;;;;;;;1.00;0.45;;;7.90;99.90;;;;;;5106853;28;20432;-53
2023/11/12 10:53:33;;;;;;;1.90;0.50;;;7.90;99.90;;;;;;5109814;28;20439;-53
2023/11/12 10:56:01;;;;;;;0.70;0.40;;;7.80;99.90;;;;;;5109729;28;20440;-55
2023/11/12 10:58:31;;;;;;;1.40;0.50;;;7.70;99.90;;;;;;5110393;28;20434;-54
2023/11/12 11:01:00;;;;;;;2.30;0.40;;;7.70;99.90;;;;;;5112356;28;20436;-55
2023/11/12 11:03:28;;;;;;;1.50;0.40;;;7.60;99.90;;;;;;5111256;27;20920;-56
2023/11/12 11:05:57;;;;;;;0.90;0.40;;;7.70;99.90;;;;;;5109611;28;20492;-56
2023/11/12 11:08:26;;;;;;;0.80;0.40;;;7.80;99.90;;;;;;5108996;28;20538;-55
2023/11/12 11:10:58;;;;;;;0.60;0.40;;;7.80;99.90;;;;;;5113980;27;20440;-54
2023/11/12 11:13:26;;;;;;;0.60;0.32;;;7.90;99.90;;;;;;5110611;27;20466;-56
2023/11/12 11:15:56;;;;;;;0.70;0.40;;;7.90;99.90;;;;;;5109015;28;20508;-54
2023/11/12 11:18:48;;;;;;;1.13;0.40;;;7.80;99.90;;;;;;5111965;27;20751;-53
2023/11/12 11:21:16;;;;;;;1.83;0.50;;;7.80;99.90;;;;;;5110084;28;20428;-54
2023/11/12 11:23:45;;;;;;;0.95;0.40;;;7.80;99.90;;;;;;5107862;28;20436;-50
2023/11/12 11:26:37;;;;;;;0.80;0.40;;;7.90;99.90;;;;;;5105574;28;20439;-52
2023/11/12 11:29:17;;;;;;;0.80;0.50;;;7.90;99.90;;;;;;5108375;27;20428;-56
2023/11/12 11:32:18;;;;;;;0.80;0.50;;;7.90;99.90;;;;;;5107059;28;20516;-56
2023/11/12 11:34:48;;;;;;;1.20;0.40;;;7.90;99.90;;;;;;5111763;28;20442;-56
2023/11/12 11:37:15;;;;;;;0.70;0.30;;;7.80;99.90;;;;;;5108231;28;20436;-54
2023/11/12 11:39:42;;;;;;;1.25;0.40;;;7.80;99.90;;;;;;5108527;28;20540;-53
2023/11/12 11:42:13;;;;;;;0.70;0.40;;;7.90;99.90;;;;;;5107431;28;20428;-56
2023/11/12 11:44:44;;;;;;;0.80;0.40;;;8.00;99.90;;;;;;5112228;28;20416;-53
2023/11/12 11:47:14;;;;;;;0.57;0.40;;;8.00;99.90;;;;;;5112373;28;20890;-54
2023/11/12 11:49:43;;;;;;;1.00;0.40;;;8.00;99.90;;;;;;5112350;28;20440;-55
2023/11/12 11:52:12;;;;;;;0.75;0.40;;;8.00;99.90;;;;;;5112949;28;20425;-55
2023/11/12 11:54:39;;;;;;;2.35;0.50;;;8.10;99.90;;;;;;5112711;28;20501;-54
2023/11/12 11:57:06;;;;;;;0.60;0.30;;;8.30;99.90;;;;;;5110986;28;20516;-56
2023/11/12 11:59:37;;;;;;;0.75;0.43;;;8.40;99.90;;;;;;5112168;28;20859;-55
2023/11/12 12:02:06;;;;;;;1.40;0.40;;;8.40;99.90;;;;;;5112542;28;20493;-51
2023/11/12 12:04:33;;;;;;;0.90;0.50;;;8.50;99.90;;;;;;5113985;28;20449;-53
2023/11/12 12:07:02;;;;;;;1.10;0.50;;;8.50;99.90;;;;;;5113484;28;20456;-55
2023/11/12 12:09:29;;;;;;;1.00;0.60;;;8.60;99.90;;;;;;5113375;28;20485;-56
2023/11/12 12:11:56;;;;;;;0.80;0.50;;;8.60;99.90;;;;;;5112008;28;20777;-56
2023/11/12 12:14:25;;;;;;;1.88;0.50;;;8.60;99.90;;;;;;5091096;28;20859;-54
2023/11/12 12:16:52;;;;;;;1.30;0.40;;;8.50;99.90;;;;;;5092626;28;20421;-55
2023/11/12 12:19:22;;;;;;;1.50;0.50;;;8.60;99.90;;;;;;5100490;28;20431;-55
2023/11/12 12:21:50;;;;;;;0.80;0.40;;;8.60;99.90;;;;;;5113829;28;20432;-54
2023/11/12 12:24:21;;;;;;;0.80;0.40;;;8.60;99.90;;;;;;5114005;28;20506;-55
2023/11/12 12:26:48;;;;;;;1.00;0.50;;;8.70;99.90;;;;;;5111214;28;20427;-55
2023/11/12 12:29:16;;;;;;;1.00;0.50;;;8.70;99.90;;;;;;5107536;28;20443;-57
2023/11/12 12:31:44;;;;;;;1.00;0.50;;;8.70;99.90;;;;;;5111931;28;20424;-56
2023/11/12 12:34:16;;;;;;;0.80;0.60;;;8.80;99.90;;;;;;5112814;28;21045;-56
2023/11/12 12:37:05;;;;;;;1.20;0.50;;;9.00;99.90;;;;;;5110547;28;20453;-56
2023/11/12 12:42:27;;;;;;;0.90;0.40;;;9.10;99.90;;;;;;5127138;27;20852;-55
2023/11/12 12:44:55;;;;;;;0.80;0.50;;;9.10;99.90;;;;;;5126386;27;20420;-55
2023/11/12 12:47:31;;;;;;;1.10;0.40;;;9.10;99.90;;;;;;5103391;27;20538;-55
2023/11/12 12:49:59;;;;;;;1.00;0.50;;;9.30;99.90;;;;;;5107499;27;20730;-56
2023/11/12 12:52:30;;;;;;;0.70;0.40;;;9.40;99.90;;;;;;5105714;28;20741;-56
2023/11/12 12:54:57;;;;;;;0.50;0.30;;;9.40;99.90;;;;;;5108887;28;20421;-54
2023/11/12 12:57:27;;;;;;;0.60;0.32;;;9.40;99.90;;;;;;5107929;28;20425;-55
2023/11/12 12:59:54;;;;;;;1.05;0.60;;;9.30;99.90;;;;;;5108724;28;20732;-53
2023/11/12 13:02:22;;;;;;;0.70;0.47;;;9.30;99.90;;;;;;5108743;28;20502;-56
2023/11/12 13:04:49;;;;;;;0.80;0.40;;;9.30;99.90;;;;;;5109613;28;20417;-55
2023/11/12 13:07:16;;;;;;;1.70;0.50;;;9.50;99.90;;;;;;5107681;28;20449;-55